createdAt,value
2023-02-18T00:03:22.635Z,96.57
2023-02-18T00:07:34.550Z,96.57
2023-02-18T00:11:39.563Z,96.55
2023-02-18T00:15:43.474Z,97.37
2023-02-18T00:19:53.517Z,96.46
2023-02-18T00:24:03.327Z,97.50
2023-02-18T00:28:08.449Z,96.97
2023-02-18T00:32:12.076Z,97.63
2023-02-18T00:36:19.882Z,96.59
2023-02-18T00:40:29.752Z,96.69
2023-02-18T00:44:33.256Z,96.05
2023-02-18T00:48:43.526Z,96.31
2023-02-18T00:52:47.441Z,95.94
2023-02-18T00:57:01.051Z,95.25
2023-02-18T01:01:15.877Z,93.60
2023-02-18T01:05:24.277Z,93.18
2023-02-18T01:09:28.048Z,93.28
2023-02-18T01:13:33.674Z,92.58
2023-02-18T01:17:37.219Z,92.46
2023-02-18T01:21:45.366Z,92.62
2023-02-18T01:25:58.677Z,92.45
2023-02-18T01:30:04.531Z,92.49
2023-02-18T01:34:08.516Z,91.88
2023-02-18T01:38:11.807Z,92.02
2023-02-18T01:42:33.266Z,92.33
2023-02-18T01:46:38.777Z,91.67
2023-02-18T01:50:48.001Z,92.65
2023-02-18T01:54:57.002Z,92.20
2023-02-18T01:59:03.392Z,92.03
2023-02-18T02:03:08.081Z,92.72
2023-02-18T02:07:29.836Z,92.88
2023-02-18T02:11:50.789Z,92.84
2023-02-18T02:16:01.917Z,94.06
2023-02-18T02:20:43.944Z,94.04
2023-02-18T02:25:11.382Z,94.71
2023-02-18T02:29:42.182Z,94.28
2023-02-18T02:34:09.266Z,92.77
2023-02-18T02:38:21.813Z,91.90
2023-02-18T02:42:42.101Z,91.70
2023-02-18T02:46:50.228Z,92.46
2023-02-18T02:51:07.108Z,91.18
2023-02-18T02:55:15.298Z,90.15
2023-02-18T02:59:23.669Z,89.96
2023-02-18T03:03:50.501Z,91.04
2023-02-18T03:08:11.006Z,91.73
2023-02-18T03:12:20.395Z,90.52
2023-02-18T03:16:33.671Z,90.28
2023-02-18T03:20:38.716Z,89.23
2023-02-18T03:24:44.212Z,89.54
2023-02-18T03:28:51.203Z,89.71
2023-02-18T03:33:04.448Z,90.03
2023-02-18T03:37:12.293Z,89.59
2023-02-18T03:41:16.781Z,90.57
2023-02-18T03:45:24.868Z,90.99
2023-02-18T03:49:28.263Z,90.58
2023-02-18T03:53:32.267Z,90.00
2023-02-18T03:57:38.558Z,89.48
2023-02-18T04:01:43.359Z,89.94
2023-02-18T04:05:46.835Z,90.06
2023-02-18T04:09:50.725Z,90.62
2023-02-18T04:13:55.554Z,89.67
2023-02-18T04:18:00.981Z,90.71
2023-02-18T04:22:04.834Z,90.87
2023-02-18T04:26:08.554Z,90.67
2023-02-18T04:30:11.912Z,90.79
2023-02-18T04:34:16.941Z,90.40
2023-02-18T04:38:20.324Z,90.92
2023-02-18T04:42:23.690Z,90.56
2023-02-18T04:46:27.133Z,89.01
2023-02-18T04:50:32.544Z,90.04
2023-02-18T04:54:36.073Z,89.44
2023-02-18T04:58:39.769Z,90.39
2023-02-18T05:02:43.017Z,88.90
2023-02-18T05:06:51.258Z,89.56
2023-02-18T05:10:55.415Z,90.09
2023-02-18T05:14:58.934Z,89.45
2023-02-18T05:19:02.618Z,89.30
2023-02-18T05:23:07.547Z,89.80
2023-02-18T05:27:10.948Z,89.92
2023-02-18T05:31:14.566Z,90.40
2023-02-18T05:35:18.432Z,89.29
2023-02-18T05:39:23.835Z,89.89
2023-02-18T05:43:27.489Z,90.38
2023-02-18T05:47:31.345Z,90.93
2023-02-18T05:51:35.043Z,90.33
2023-02-18T05:55:43.033Z,90.18
2023-02-18T05:59:46.589Z,91.16
2023-02-18T06:03:53.300Z,90.12
2023-02-18T06:07:57.012Z,90.66
2023-02-18T06:12:02.504Z,90.74
2023-02-18T06:16:06.677Z,90.55
2023-02-18T06:20:12.240Z,89.90
2023-02-18T06:24:15.706Z,90.37
2023-02-18T06:28:26.702Z,90.36
2023-02-18T06:32:29.739Z,90.61
2023-02-18T06:36:33.192Z,89.86
2023-02-18T06:40:36.234Z,88.61
2023-02-18T06:44:40.955Z,89.55
2023-02-18T06:48:45.701Z,88.91
2023-02-18T06:52:49.055Z,88.47
2023-02-18T06:56:52.117Z,88.28
2023-02-18T07:01:10.967Z,86.10
2023-02-18T07:05:14.962Z,86.46
2023-02-18T07:09:21.825Z,87.46
2023-02-18T07:13:26.118Z,86.33
2023-02-18T07:17:34.068Z,87.37
2023-02-18T07:21:37.242Z,87.15
2023-02-18T07:25:41.094Z,85.92
2023-02-18T07:29:46.399Z,85.74
2023-02-18T07:33:51.162Z,85.85
2023-02-18T07:37:54.553Z,85.30
2023-02-18T07:41:58.579Z,85.66
2023-02-18T07:46:07.383Z,84.72
2023-02-18T07:50:18.440Z,83.99
2023-02-18T07:54:22.255Z,84.83
2023-02-18T07:58:26.351Z,83.73
2023-02-18T08:02:30.299Z,83.59
2023-02-18T08:06:35.726Z,83.79
2023-02-18T08:10:38.494Z,84.58
2023-02-18T08:14:42.530Z,84.79
2023-02-18T08:18:51.362Z,83.46
2023-02-18T08:22:55.724Z,84.05
2023-02-18T08:27:01.282Z,85.81
2023-02-18T08:31:04.718Z,84.81
2023-02-18T08:35:08.817Z,84.50
2023-02-18T08:39:15.159Z,85.02
2023-02-18T08:43:21.124Z,84.96
2023-02-18T08:48:13.295Z,84.26
2023-02-18T08:51:53.947Z,83.60
2023-02-18T08:55:59.963Z,83.36
2023-02-18T09:00:06.311Z,82.84
2023-02-18T09:04:09.689Z,83.72
2023-02-18T09:08:12.855Z,82.89
2023-02-18T09:12:17.541Z,82.50
2023-02-18T09:16:29.246Z,82.61
2023-02-18T09:20:32.619Z,82.92
2023-02-18T09:24:40.547Z,82.70
2023-02-18T09:28:53.536Z,81.66
2023-02-18T09:33:01.109Z,82.03
2023-02-18T09:37:04.590Z,80.47
2023-02-18T09:41:11.712Z,80.59
2023-02-18T09:45:17.319Z,81.48
2023-02-18T09:49:28.622Z,79.41
2023-02-18T09:53:33.093Z,78.54
2023-02-18T09:57:51.486Z,78.67
2023-02-18T10:01:57.714Z,79.28
2023-02-18T10:06:04.327Z,78.33
2023-02-18T10:10:20.080Z,79.40
2023-02-18T10:14:23.653Z,77.99
2023-02-18T10:18:32.516Z,77.73
2023-02-18T10:22:35.776Z,78.95
2023-02-18T10:26:40.730Z,77.07
2023-02-18T10:30:49.531Z,78.57
2023-02-18T10:34:57.781Z,76.78
2023-02-18T10:39:10.641Z,78.65
2023-02-18T10:43:30.583Z,76.81
2023-02-18T10:47:40.897Z,75.54
2023-02-18T10:52:04.938Z,75.36
2023-02-18T10:56:12.072Z,73.61
2023-02-18T11:00:24.739Z,74.80
2023-02-18T11:04:33.409Z,73.74
2023-02-18T11:08:46.835Z,73.91
2023-02-18T11:13:04.701Z,73.21
2023-02-18T11:17:28.268Z,74.14
2023-02-18T11:21:35.017Z,70.07
2023-02-18T11:25:43.326Z,71.17
2023-02-18T11:29:48.273Z,70.00
2023-02-18T11:34:01.132Z,71.06
2023-02-18T11:38:23.192Z,69.08
2023-02-18T11:42:29.631Z,70.88
2023-02-18T11:46:36.144Z,69.76
2023-02-18T11:50:43.630Z,70.09
2023-02-18T11:55:01.900Z,71.08
2023-02-18T11:59:18.155Z,71.11
2023-02-18T12:03:32.969Z,71.77
2023-02-18T12:07:47.220Z,70.97
2023-02-18T12:11:53.231Z,70.26
2023-02-18T12:16:06.307Z,70.11
2023-02-18T12:20:28.573Z,72.02
2023-02-18T12:24:43.005Z,69.57
2023-02-18T12:28:57.982Z,69.37
2023-02-18T12:33:10.158Z,70.47
2023-02-18T12:37:47.365Z,71.56
2023-02-18T12:42:00.753Z,71.73
2023-02-18T12:46:25.836Z,71.00
2023-02-18T12:51:00.147Z,71.38
2023-02-18T12:55:26.947Z,70.76
2023-02-18T13:00:00.358Z,72.64
2023-02-18T13:04:24.622Z,71.53
2023-02-18T13:08:38.499Z,71.44
2023-02-18T13:12:48.632Z,71.85
2023-02-18T13:16:53.838Z,72.17
2023-02-18T13:20:59.553Z,72.81
2023-02-18T13:25:03.850Z,73.81
2023-02-18T13:29:19.250Z,74.19
2023-02-18T13:33:30.343Z,72.82
2023-02-18T13:37:39.469Z,73.49
2023-02-18T13:41:45.144Z,73.77
2023-02-18T13:46:20.829Z,73.76
2023-02-18T13:50:32.958Z,72.62
2023-02-18T13:54:44.942Z,73.76
2023-02-18T13:58:53.702Z,75.08
2023-02-18T14:02:59.571Z,74.07
2023-02-18T14:07:31.524Z,74.75
2023-02-18T14:11:55.746Z,74.43
2023-02-18T14:16:03.413Z,73.78
2023-02-18T14:20:46.859Z,73.87
2023-02-18T14:24:52.396Z,73.66
2023-02-18T14:28:57.505Z,74.85
2023-02-18T14:33:02.234Z,74.22
2023-02-18T14:37:14.807Z,73.88
2023-02-18T14:41:28.287Z,74.58
2023-02-18T14:45:41.743Z,73.75
2023-02-18T14:49:47.674Z,75.20
2023-02-18T14:53:51.500Z,75.14
2023-02-18T14:57:55.427Z,75.21
2023-02-18T15:01:58.588Z,75.54
2023-02-18T15:06:03.065Z,75.30
2023-02-18T15:10:06.941Z,75.57
2023-02-18T15:14:13.296Z,75.90
2023-02-18T15:18:30.814Z,76.34
2023-02-18T15:22:37.484Z,76.18
2023-02-18T15:26:44.240Z,77.34
2023-02-18T15:30:48.514Z,77.14
2023-02-18T15:34:52.832Z,78.12
2023-02-18T15:38:58.351Z,78.04
2023-02-18T15:43:12.077Z,78.40
2023-02-18T15:47:21.889Z,77.54
2023-02-18T15:51:29.976Z,78.27
2023-02-18T15:55:37.061Z,78.51
2023-02-18T15:59:45.658Z,77.97
2023-02-18T16:03:48.726Z,77.90
2023-02-18T16:07:59.640Z,78.66
2023-02-18T16:12:05.631Z,78.63
2023-02-18T16:16:19.284Z,78.28
2023-02-18T16:20:28.792Z,79.01
2023-02-18T16:24:33.686Z,79.82
2023-02-18T16:28:44.000Z,80.31
2023-02-18T16:32:47.213Z,80.80
2023-02-18T16:37:08.306Z,80.75
2023-02-18T16:41:13.417Z,82.10
2023-02-18T16:45:18.025Z,82.01
2023-02-18T16:49:21.418Z,82.96
2023-02-18T16:53:24.431Z,83.92
2023-02-18T16:57:27.365Z,85.00
2023-02-18T17:01:34.498Z,84.62
2023-02-18T17:05:40.822Z,84.69
2023-02-18T17:09:43.612Z,83.79
2023-02-18T17:13:46.527Z,83.32
2023-02-18T17:17:51.522Z,83.76
2023-02-18T17:21:55.053Z,82.95
2023-02-18T17:25:58.657Z,84.17
2023-02-18T17:30:02.174Z,82.53
2023-02-18T17:34:09.090Z,82.98
2023-02-18T17:38:13.358Z,82.61
2023-02-18T17:42:17.065Z,82.79
2023-02-18T17:46:20.350Z,82.19
2023-02-18T17:50:25.534Z,82.95
2023-02-18T17:54:29.462Z,82.32
2023-02-18T17:58:32.341Z,82.66
2023-02-18T18:02:35.688Z,81.58
2023-02-18T18:06:40.285Z,83.09
2023-02-18T18:10:50.379Z,82.34
2023-02-18T18:14:53.739Z,81.92
2023-02-18T18:18:57.047Z,81.96
2023-02-18T18:23:03.543Z,82.62
2023-02-18T18:27:07.590Z,81.63
2023-02-18T18:31:15.327Z,81.60
2023-02-18T18:35:30.009Z,82.18
2023-02-18T18:39:36.380Z,81.35
2023-02-18T18:43:40.619Z,81.81
2023-02-18T18:47:43.852Z,81.66
2023-02-18T18:51:47.541Z,81.28
2023-02-18T18:55:53.421Z,81.93
2023-02-18T18:59:59.491Z,80.63
2023-02-18T19:04:02.773Z,81.03
2023-02-18T19:08:12.615Z,80.05
2023-02-18T19:12:17.253Z,81.60
2023-02-18T19:16:23.873Z,81.49
2023-02-18T19:20:28.786Z,81.32
2023-02-18T19:24:32.545Z,81.18
2023-02-18T19:28:37.648Z,79.90
2023-02-18T19:32:41.145Z,81.99
2023-02-18T19:36:45.314Z,81.61
2023-02-18T19:40:51.652Z,81.78
2023-02-18T19:44:56.761Z,82.52
2023-02-18T19:49:02.113Z,82.08
2023-02-18T19:53:06.203Z,82.23
2023-02-18T19:57:09.717Z,82.44
2023-02-18T20:01:15.191Z,82.67
2023-02-18T20:05:18.866Z,83.12
2023-02-18T20:09:22.209Z,82.61
2023-02-18T20:13:27.088Z,82.63
2023-02-18T20:17:37.596Z,82.50
2023-02-18T20:21:47.550Z,82.61
2023-02-18T20:25:51.089Z,83.20
2023-02-18T20:29:54.588Z,83.98
2023-02-18T20:33:59.171Z,83.95
2023-02-18T20:38:02.450Z,84.14
2023-02-18T20:42:15.773Z,83.63
2023-02-18T20:46:22.117Z,84.35
2023-02-18T20:50:27.036Z,84.45
2023-02-18T20:54:30.205Z,84.22
2023-02-18T20:58:35.278Z,84.19
2023-02-18T21:02:38.349Z,84.15
2023-02-18T21:06:45.367Z,84.70
2023-02-18T21:10:48.631Z,84.56
2023-02-18T21:14:51.994Z,84.85
2023-02-18T21:18:55.605Z,84.82
2023-02-18T21:23:00.261Z,85.04
2023-02-18T21:27:04.130Z,85.24
2023-02-18T21:31:16.349Z,85.25
2023-02-18T21:35:19.570Z,85.18
2023-02-18T21:39:24.290Z,85.22
2023-02-18T21:43:27.932Z,85.06
2023-02-18T21:47:31.074Z,84.83
2023-02-18T21:51:54.380Z,85.76
2023-02-18T21:56:03.809Z,86.80
2023-02-18T22:00:19.556Z,85.58
2023-02-18T22:04:24.193Z,86.44
2023-02-18T22:08:27.128Z,86.52
2023-02-18T22:12:32.887Z,86.74
2023-02-18T22:16:36.558Z,87.16
2023-02-18T22:20:42.597Z,86.75
2023-02-18T22:24:46.513Z,87.64
2023-02-18T22:28:55.081Z,87.33
2023-02-18T22:32:58.364Z,87.34
2023-02-18T22:37:01.740Z,88.49
2023-02-18T22:41:05.789Z,88.48
2023-02-18T22:45:11.886Z,87.66
2023-02-18T22:49:18.219Z,88.60
2023-02-18T22:53:21.416Z,88.80
2023-02-18T22:57:24.733Z,88.09
2023-02-18T23:01:31.482Z,88.22
2023-02-18T23:05:35.837Z,88.79
2023-02-18T23:09:39.842Z,88.80
2023-02-18T23:13:43.914Z,88.00
2023-02-18T23:17:51.629Z,87.39
2023-02-18T23:21:55.003Z,88.22
2023-02-18T23:26:02.083Z,88.81
2023-02-18T23:30:05.785Z,89.13
2023-02-18T23:34:17.696Z,89.04
2023-02-18T23:38:25.262Z,90.38
2023-02-18T23:42:28.520Z,90.49
2023-02-18T23:46:31.908Z,90.29
2023-02-18T23:50:36.629Z,91.12
2023-02-18T23:54:40.924Z,91.05
2023-02-18T23:58:45.553Z,89.57
